Time;durP1;ratioP1;P1;durP2;ratioP2;P2;SDS_P1;SDS_P2;PMS_P1;PMS_P2;Temp;Humidity;BMP_temperature;BMP_pressure;BME280_temperature;BME280_humidity;BME280_pressure;Samples;Min_cycle;Max_cycle;Signal;HPM_P1;HPM_P2
2021/12/22 00:01:37;;;;;;;34.22;20.27;;;-1.80;99.90;;;;;;5081823;28;20055;-89
2021/12/22 00:04:03;;;;;;;40.88;24.00;;;-1.90;99.90;;;;;;5094235;28;20044;-90
2021/12/22 00:06:32;;;;;;;42.97;25.35;;;-1.90;99.90;;;;;;5091036;28;20526;-92
2021/12/22 00:08:58;;;;;;;63.30;36.45;;;-1.90;99.90;;;;;;5077106;28;20055;-89
2021/12/22 00:11:25;;;;;;;51.15;29.48;;;-1.90;99.90;;;;;;5066272;28;20032;-90
2021/12/22 00:13:51;;;;;;;41.08;23.27;;;-2.00;99.90;;;;;;5060945;28;20048;-89
2021/12/22 00:16:16;;;;;;;37.30;23.65;;;-2.10;99.90;;;;;;5091127;28;20047;-88
2021/12/22 00:18:42;;;;;;;43.80;25.02;;;-2.10;99.90;;;;;;5064057;28;20062;-90
2021/12/22 00:21:10;;;;;;;31.35;22.48;;;-2.00;99.90;;;;;;5097278;28;20067;-85
2021/12/22 00:23:36;;;;;;;41.53;25.45;;;-2.00;99.90;;;;;;5071341;28;20510;-91
2021/12/22 00:26:02;;;;;;;44.03;26.10;;;-2.10;99.90;;;;;;5080661;28;20405;-80
2021/12/22 00:28:28;;;;;;;40.67;25.35;;;-1.90;99.90;;;;;;5063775;28;20044;-84
2021/12/22 00:30:54;;;;;;;33.97;22.90;;;-2.10;99.90;;;;;;5071942;28;20478;-86
2021/12/22 00:33:20;;;;;;;40.83;22.40;;;-2.00;99.90;;;;;;5062526;28;20048;-89
2021/12/22 00:35:46;;;;;;;41.78;26.08;;;-2.10;99.90;;;;;;5057091;28;20087;-90
2021/12/22 00:38:15;;;;;;;37.60;22.77;;;-2.10;99.90;;;;;;5088285;28;20040;-87
2021/12/22 00:40:41;;;;;;;37.88;23.60;;;-2.10;99.90;;;;;;5058087;28;20524;-91
2021/12/22 00:43:08;;;;;;;37.25;24.38;;;-2.00;99.90;;;;;;5090700;28;20547;-92
2021/12/22 00:45:35;;;;;;;40.58;23.65;;;-2.00;99.90;;;;;;5092316;28;20093;-92
2021/12/22 00:48:02;;;;;;;37.08;23.85;;;-2.20;99.90;;;;;;5085366;28;20048;-90
2021/12/22 00:50:29;;;;;;;37.78;22.65;;;-2.10;99.90;;;;;;5073791;28;20044;-91
2021/12/22 00:52:54;;;;;;;45.65;26.88;;;-2.20;99.90;;;;;;5072656;28;20040;-89
2021/12/22 00:55:20;;;;;;;35.80;25.45;;;-2.10;99.90;;;;;;5068525;28;20062;-90
2021/12/22 00:57:47;;;;;;;34.63;22.48;;;-2.20;99.90;;;;;;5089016;28;20063;-92
2021/12/22 01:00:14;;;;;;;38.50;23.60;;;-2.30;99.90;;;;;;5083825;28;20039;-89
2021/12/22 01:02:42;;;;;;;34.40;22.67;;;-2.10;99.90;;;;;;5088520;28;20387;-91
2021/12/22 01:05:09;;;;;;;35.65;22.15;;;-2.20;99.90;;;;;;5063348;28;20443;-88
2021/12/22 01:07:35;;;;;;;31.70;19.02;;;-2.20;99.90;;;;;;5087513;28;20044;-90
2021/12/22 01:10:00;;;;;;;31.33;17.55;;;-2.30;99.90;;;;;;5073414;28;20121;-92
2021/12/22 01:12:26;;;;;;;24.88;18.35;;;-2.20;99.90;;;;;;5074641;28;20497;-89
2021/12/22 01:14:51;;;;;;;32.05;17.95;;;-2.20;99.90;;;;;;5076317;28;20047;-89
2021/12/22 01:17:17;;;;;;;24.23;17.92;;;-2.20;99.90;;;;;;5087882;28;20051;-92
2021/12/22 01:24:48;;;;;;;18.98;15.60;;;-2.40;99.90;;;;;;5093229;28;20055;-91
2021/12/22 01:27:19;;;;;;;33.17;17.20;;;-2.40;99.90;;;;;;5070397;28;20052;-89
2021/12/22 01:29:45;;;;;;;22.13;14.75;;;-2.30;99.90;;;;;;5082706;28;20071;-92
2021/12/22 01:32:12;;;;;;;23.75;15.27;;;-2.30;99.90;;;;;;5086209;28;20049;-90
2021/12/22 01:34:38;;;;;;;26.25;16.10;;;-2.30;99.90;;;;;;5061088;28;20513;-83
2021/12/22 01:37:03;;;;;;;28.00;15.45;;;-2.40;99.90;;;;;;5066842;28;20078;-89
2021/12/22 01:39:29;;;;;;;23.55;15.30;;;-2.50;99.90;;;;;;5065574;28;20129;-91
2021/12/22 01:41:55;;;;;;;29.42;17.25;;;-2.40;99.90;;;;;;5053376;28;20047;-89
2021/12/22 01:50:09;;;;;;;25.52;15.48;;;-2.40;99.90;;;;;;5075186;28;20045;-91
2021/12/22 01:52:35;;;;;;;24.30;15.45;;;-2.40;99.90;;;;;;5082026;28;20101;-91
2021/12/22 01:55:15;;;;;;;21.38;14.82;;;-2.40;99.90;;;;;;5073274;28;20064;-89
2021/12/22 01:57:47;;;;;;;25.90;14.80;;;-2.40;99.90;;;;;;5099877;28;20056;-90
2021/12/22 02:00:14;;;;;;;27.38;16.25;;;-2.50;99.90;;;;;;5069565;28;20090;-80
2021/12/22 02:02:40;;;;;;;25.13;16.65;;;-2.40;99.90;;;;;;5077664;28;20128;-90
2021/12/22 02:05:06;;;;;;;23.77;16.45;;;-2.50;99.90;;;;;;5079912;28;20047;-88
2021/12/22 02:07:32;;;;;;;26.17;16.58;;;-2.50;99.90;;;;;;5104001;28;20055;-88
2021/12/22 02:12:47;;;;;;;29.50;17.50;;;-2.40;99.90;;;;;;5079577;28;20515;-88
2021/12/22 02:15:13;;;;;;;21.75;16.42;;;-2.50;99.90;;;;;;5094354;28;20028;-74
2021/12/22 02:17:40;;;;;;;29.20;17.08;;;-2.70;99.90;;;;;;5072655;28;20063;-78
2021/12/22 02:20:06;;;;;;;32.13;16.25;;;-2.70;99.90;;;;;;5114634;28;20044;-88
2021/12/22 02:22:33;;;;;;;23.80;15.32;;;-2.70;99.90;;;;;;5099795;28;20060;-91
2021/12/22 02:25:04;;;;;;;27.85;16.42;;;-2.70;99.90;;;;;;5098225;28;20067;-89
2021/12/22 02:27:42;;;;;;;28.35;16.50;;;-2.60;99.90;;;;;;5114273;28;20052;-86
2021/12/22 02:30:16;;;;;;;32.33;17.13;;;-2.70;99.90;;;;;;5079999;28;20028;-82
2021/12/22 02:35:07;;;;;;;22.92;15.57;;;-2.70;99.90;;;;;;5095147;28;20075;-87
2021/12/22 02:37:42;;;;;;;22.13;15.30;;;-2.60;99.90;;;;;;5071898;28;20048;-89
2021/12/22 02:40:14;;;;;;;25.83;16.35;;;-2.60;99.90;;;;;;5101193;28;20032;-74
2021/12/22 02:42:41;;;;;;;25.02;15.90;;;-2.70;99.90;;;;;;5113153;28;20020;-80
2021/12/22 02:45:09;;;;;;;25.42;17.88;;;-2.60;99.90;;;;;;5118346;28;20031;-77
2021/12/22 02:47:35;;;;;;;24.20;14.65;;;-2.80;99.90;;;;;;5115345;28;20054;-91
2021/12/22 02:50:03;;;;;;;25.38;17.00;;;-2.70;99.90;;;;;;5111900;28;20090;-89
2021/12/22 02:52:35;;;;;;;25.92;15.13;;;-2.80;99.90;;;;;;5110546;28;20044;-88
2021/12/22 02:55:02;;;;;;;25.02;16.13;;;-2.80;99.90;;;;;;5108502;28;20055;-78
2021/12/22 02:57:37;;;;;;;30.35;17.38;;;-2.80;99.90;;;;;;5098549;28;20092;-87
2021/12/22 03:05:21;;;;;;;24.08;15.57;;;-2.80;99.90;;;;;;5090529;28;20122;-88
2021/12/22 03:07:48;;;;;;;25.02;16.35;;;-2.80;99.90;;;;;;5099727;28;20051;-91
2021/12/22 03:10:17;;;;;;;26.15;16.45;;;-2.90;99.90;;;;;;5092758;28;20564;-78
2021/12/22 03:12:44;;;;;;;28.42;16.05;;;-2.90;99.90;;;;;;5085254;28;20052;-83
2021/12/22 03:15:10;;;;;;;28.13;16.52;;;-2.70;99.90;;;;;;5069781;28;20051;-91
2021/12/22 03:17:38;;;;;;;22.65;15.35;;;-2.90;99.90;;;;;;5076839;28;20057;-89
2021/12/22 03:20:07;;;;;;;28.63;16.45;;;-2.90;99.90;;;;;;5074859;28;20040;-90
2021/12/22 03:22:33;;;;;;;25.02;15.50;;;-2.80;99.90;;;;;;5082591;28;20511;-91
2021/12/22 03:24:58;;;;;;;29.27;16.73;;;-2.90;99.90;;;;;;5080464;28;20040;-92
2021/12/22 03:27:24;;;;;;;23.25;16.85;;;-2.90;99.90;;;;;;5069404;28;20048;-91
2021/12/22 03:29:51;;;;;;;26.27;14.65;;;-2.90;99.90;;;;;;5087950;28;20059;-92
2021/12/22 03:32:17;;;;;;;24.27;16.38;;;-2.90;99.90;;;;;;5081358;28;20520;-92
2021/12/22 03:34:43;;;;;;;23.20;15.70;;;-2.90;99.90;;;;;;5095698;28;20046;-86
2021/12/22 03:37:10;;;;;;;24.85;15.60;;;-3.00;99.90;;;;;;5097185;28;20044;-94
2021/12/22 03:39:37;;;;;;;22.70;14.40;;;-3.00;99.90;;;;;;5094778;28;20032;-91
2021/12/22 03:42:07;;;;;;;25.42;15.63;;;-3.10;99.90;;;;;;5067985;28;20388;-86
2021/12/22 03:44:33;;;;;;;23.90;13.73;;;-3.10;99.90;;;;;;5094105;28;20479;-93
2021/12/22 03:47:00;;;;;;;27.65;15.88;;;-3.00;99.90;;;;;;5077833;28;20044;-92
2021/12/22 03:49:27;;;;;;;26.83;17.55;;;-3.00;99.90;;;;;;5053413;28;20086;-93
2021/12/22 03:51:52;;;;;;;31.42;15.88;;;-3.10;99.90;;;;;;5075166;28;20490;-92
2021/12/22 03:54:18;;;;;;;28.17;17.30;;;-3.00;99.90;;;;;;5063021;28;20063;-90
2021/12/22 03:56:44;;;;;;;26.90;16.33;;;-3.20;99.90;;;;;;5080982;28;20043;-88
2021/12/22 03:59:09;;;;;;;25.95;14.55;;;-3.00;99.90;;;;;;5088827;28;20055;-89
2021/12/22 04:01:35;;;;;;;24.05;15.85;;;-3.20;99.90;;;;;;5076856;28;20052;-92
2021/12/22 04:04:07;;;;;;;30.02;14.50;;;-3.20;99.90;;;;;;5073809;28;20062;-93
2021/12/22 04:06:33;;;;;;;22.27;14.43;;;-3.20;99.90;;;;;;5083655;28;20052;-91
2021/12/22 04:08:59;;;;;;;24.23;14.95;;;-3.20;99.90;;;;;;5081221;28;20062;-92
2021/12/22 04:11:24;;;;;;;26.17;14.40;;;-3.20;99.90;;;;;;5056500;28;20048;-91
2021/12/22 04:13:50;;;;;;;21.52;13.77;;;-3.10;99.90;;;;;;5076255;28;20048;-91
2021/12/22 04:16:15;;;;;;;25.98;14.50;;;-3.20;99.90;;;;;;5054636;28;20051;-91
2021/12/22 04:18:41;;;;;;;31.38;15.35;;;-3.20;99.90;;;;;;5084830;28;20057;-92
2021/12/22 04:21:07;;;;;;;29.35;14.15;;;-3.30;99.90;;;;;;5095647;28;20043;-90
2021/12/22 04:23:32;;;;;;;24.38;15.18;;;-3.30;99.90;;;;;;5087896;28;20055;-88
2021/12/22 04:25:58;;;;;;;24.13;16.98;;;-3.30;99.90;;;;;;5079147;28;20078;-91
2021/12/22 04:28:24;;;;;;;23.70;14.57;;;-3.20;99.90;;;;;;5082635;28;20040;-90
2021/12/22 04:30:50;;;;;;;25.70;14.48;;;-3.30;99.90;;;;;;5082200;28;20051;-91
2021/12/22 04:33:19;;;;;;;20.90;14.38;;;-3.30;99.90;;;;;;5087801;28;20044;-91
2021/12/22 04:35:45;;;;;;;29.60;15.60;;;-3.40;99.90;;;;;;5083061;28;20044;-90
2021/12/22 04:38:10;;;;;;;24.38;13.63;;;-3.30;99.90;;;;;;5095300;28;20099;-90
2021/12/22 04:40:36;;;;;;;30.10;14.02;;;-3.30;99.90;;;;;;5102133;28;20495;-90
2021/12/22 04:43:02;;;;;;;26.50;13.10;;;-3.40;99.90;;;;;;5083788;28;20049;-83
2021/12/22 04:45:28;;;;;;;22.30;13.15;;;-3.40;99.90;;;;;;5082009;28;20047;-87
2021/12/22 04:47:53;;;;;;;26.13;15.40;;;-3.50;99.90;;;;;;5093583;28;20095;-76
2021/12/22 04:50:21;;;;;;;24.58;13.63;;;-3.40;99.90;;;;;;5098245;28;20036;-90
2021/12/22 04:55:22;;;;;;;20.17;13.85;;;-3.50;99.90;;;;;;5088740;28;20462;-90
2021/12/22 04:57:47;;;;;;;24.20;14.82;;;-3.40;99.90;;;;;;5106102;28;20089;-90
2021/12/22 05:00:15;;;;;;;19.88;13.52;;;-3.40;99.90;;;;;;5106698;28;20513;-84
2021/12/22 05:02:41;;;;;;;23.30;14.30;;;-3.50;99.90;;;;;;5087409;28;20040;-89
2021/12/22 05:05:07;;;;;;;23.88;14.55;;;-3.60;99.90;;;;;;5092949;28;20032;-83
2021/12/22 05:07:33;;;;;;;25.00;13.02;;;-3.60;99.90;;;;;;5072492;28;20047;-92
2021/12/22 05:09:58;;;;;;;28.27;15.00;;;-3.50;99.90;;;;;;5108623;28;20032;-89
2021/12/22 05:12:24;;;;;;;25.90;14.90;;;-3.60;99.90;;;;;;5104505;28;20036;-89
2021/12/22 05:14:51;;;;;;;21.60;12.77;;;-3.60;99.90;;;;;;5090430;28;20091;-91
2021/12/22 05:17:25;;;;;;;24.52;14.23;;;-3.50;99.90;;;;;;5105558;28;20044;-75
2021/12/22 05:19:51;;;;;;;25.23;14.52;;;-3.50;99.90;;;;;;5084825;28;20056;-88
2021/12/22 05:22:17;;;;;;;29.10;16.30;;;-3.60;99.90;;;;;;5073498;28;20049;-90
2021/12/22 05:24:42;;;;;;;23.80;14.63;;;-3.70;99.90;;;;;;5060800;28;20489;-79
2021/12/22 05:27:11;;;;;;;25.30;16.48;;;-3.80;99.90;;;;;;5058441;28;20036;-90
2021/12/22 05:29:37;;;;;;;20.67;13.32;;;-3.80;99.90;;;;;;5093607;28;20040;-91
2021/12/22 05:32:04;;;;;;;24.02;14.38;;;-3.70;99.90;;;;;;5096763;28;20104;-90
2021/12/22 05:34:30;;;;;;;31.92;16.98;;;-3.70;99.90;;;;;;5078918;28;20040;-90
2021/12/22 05:36:56;;;;;;;25.08;14.70;;;-3.70;99.90;;;;;;5065570;28;20041;-88
2021/12/22 05:39:21;;;;;;;24.73;14.63;;;-3.70;99.90;;;;;;5074754;28;20095;-91
2021/12/22 05:41:47;;;;;;;22.98;15.85;;;-3.70;99.90;;;;;;5088202;28;20040;-91
2021/12/22 05:44:13;;;;;;;24.02;15.05;;;-3.80;99.90;;;;;;5092300;28;20044;-85
2021/12/22 05:46:38;;;;;;;25.00;13.93;;;-3.70;99.90;;;;;;5099441;28;20051;-89
2021/12/22 05:49:04;;;;;;;27.50;15.15;;;-3.70;99.90;;;;;;5078672;28;20383;-91
2021/12/22 05:51:33;;;;;;;26.25;13.98;;;-3.70;99.90;;;;;;5077833;28;20045;-91
2021/12/22 05:53:58;;;;;;;24.95;15.20;;;-3.80;99.90;;;;;;5087205;28;20436;-90
2021/12/22 05:56:26;;;;;;;20.15;13.48;;;-3.80;99.90;;;;;;5083819;28;20040;-88
2021/12/22 05:58:52;;;;;;;25.90;14.55;;;-3.70;99.90;;;;;;5070913;28;20554;-89
2021/12/22 06:01:18;;;;;;;30.20;15.07;;;-3.80;99.90;;;;;;5076005;28;20052;-91
2021/12/22 06:03:43;;;;;;;28.35;15.55;;;-3.70;99.90;;;;;;5084773;28;20112;-90
2021/12/22 06:06:11;;;;;;;20.67;14.57;;;-3.80;99.90;;;;;;5086339;28;20055;-88
2021/12/22 06:08:36;;;;;;;24.45;14.63;;;-3.80;99.90;;;;;;5087509;28;20044;-89
2021/12/22 06:11:02;;;;;;;26.75;14.93;;;-3.90;99.90;;;;;;5093575;28;20260;-81
2021/12/22 06:13:28;;;;;;;27.70;15.82;;;-3.80;99.90;;;;;;5087025;28;20078;-87
2021/12/22 06:15:53;;;;;;;26.70;15.77;;;-3.80;99.90;;;;;;5095660;28;20043;-77
2021/12/22 06:18:19;;;;;;;24.63;16.45;;;-4.00;99.90;;;;;;5091703;28;20066;-89
2021/12/22 06:20:45;;;;;;;22.73;14.02;;;-3.90;99.90;;;;;;5077235;28;20058;-89
2021/12/22 06:23:12;;;;;;;21.67;14.13;;;-3.80;99.90;;;;;;5081697;28;20131;-89
2021/12/22 06:25:38;;;;;;;24.20;14.55;;;-4.00;99.90;;;;;;5096429;28;20099;-92
2021/12/22 06:28:05;;;;;;;26.35;13.43;;;-3.90;99.90;;;;;;5088349;28;20083;-89
2021/12/22 06:30:31;;;;;;;22.25;14.13;;;-3.90;99.90;;;;;;5090594;28;20057;-90
2021/12/22 06:32:56;;;;;;;25.67;16.45;;;-3.90;99.90;;;;;;5095973;28;20055;-89
2021/12/22 06:35:22;;;;;;;22.83;14.82;;;-4.00;99.90;;;;;;5078634;28;20075;-89
2021/12/22 06:37:48;;;;;;;22.58;13.82;;;-4.00;99.90;;;;;;5051677;28;20114;-89
2021/12/22 06:40:15;;;;;;;27.33;15.40;;;-4.00;99.90;;;;;;5095608;28;20513;-86
2021/12/22 06:42:41;;;;;;;23.45;16.08;;;-4.00;99.90;;;;;;5093527;28;20539;-88
2021/12/22 06:45:09;;;;;;;28.00;14.73;;;-4.10;99.90;;;;;;5077561;28;20063;-89
2021/12/22 06:47:35;;;;;;;33.25;15.45;;;-4.10;99.90;;;;;;5109153;28;20044;-90
2021/12/22 06:50:01;;;;;;;23.30;13.70;;;-4.10;99.90;;;;;;5094864;28;20038;-88
2021/12/22 06:52:27;;;;;;;26.20;15.07;;;-4.00;99.90;;;;;;5090752;28;20039;-89
2021/12/22 06:54:53;;;;;;;26.73;16.00;;;-4.00;99.90;;;;;;5070366;28;20032;-88
2021/12/22 06:57:20;;;;;;;28.77;14.63;;;-4.00;99.90;;;;;;5081297;28;20048;-87
2021/12/22 06:59:47;;;;;;;23.88;13.95;;;-4.00;99.90;;;;;;5061489;28;20111;-87
2021/12/22 07:02:13;;;;;;;25.85;14.93;;;-4.10;99.90;;;;;;5067470;28;20052;-77
2021/12/22 07:04:39;;;;;;;30.30;15.57;;;-4.00;99.90;;;;;;5088096;28;20051;-87
2021/12/22 07:07:05;;;;;;;26.45;16.58;;;-4.00;99.90;;;;;;5092060;28;20124;-88
2021/12/22 07:09:30;;;;;;;25.95;14.23;;;-4.00;99.90;;;;;;5077936;28;20523;-87
2021/12/22 07:11:56;;;;;;;22.98;14.30;;;-4.00;99.90;;;;;;5075941;28;20417;-87
2021/12/22 07:14:22;;;;;;;22.85;15.43;;;-4.00;99.90;;;;;;5090273;28;20069;-86
2021/12/22 07:16:48;;;;;;;23.75;14.88;;;-3.90;99.90;;;;;;5068483;28;20074;-86
2021/12/22 07:19:14;;;;;;;30.83;17.20;;;-3.90;99.90;;;;;;5073547;28;20076;-74
2021/12/22 07:21:40;;;;;;;26.85;15.52;;;-4.00;99.90;;;;;;5072337;28;20131;-84
2021/12/22 07:24:06;;;;;;;24.67;13.80;;;-4.00;99.90;;;;;;5083968;28;20123;-83
2021/12/22 07:26:32;;;;;;;23.02;13.65;;;-4.00;99.90;;;;;;5068221;28;20071;-83
2021/12/22 07:28:58;;;;;;;27.80;15.45;;;-3.90;99.90;;;;;;5090748;28;20106;-85
2021/12/22 07:31:24;;;;;;;28.80;16.58;;;-4.00;99.90;;;;;;5076504;28;20063;-84
2021/12/22 07:34:00;;;;;;;31.42;17.40;;;-3.90;99.90;;;;;;5088333;28;20046;-84
2021/12/22 07:36:26;;;;;;;27.25;14.40;;;-3.90;99.90;;;;;;5076408;28;20036;-83
2021/12/22 07:38:59;;;;;;;29.30;17.15;;;-3.90;99.90;;;;;;5078176;28;20044;-81
2021/12/22 07:41:26;;;;;;;28.95;15.70;;;-3.90;99.90;;;;;;5083760;28;20036;-83
2021/12/22 07:43:51;;;;;;;36.50;16.83;;;-4.00;99.90;;;;;;5088777;28;20139;-83
2021/12/22 07:46:17;;;;;;;26.23;14.63;;;-3.90;99.90;;;;;;5095959;28;20116;-83
2021/12/22 07:48:43;;;;;;;37.80;18.05;;;-4.00;99.90;;;;;;5092908;28;20039;-74
2021/12/22 07:51:09;;;;;;;30.80;15.00;;;-4.00;99.90;;;;;;5103510;28;20039;-84
2021/12/22 07:53:35;;;;;;;30.20;16.88;;;-3.90;99.90;;;;;;5077304;28;20048;-85
2021/12/22 07:56:00;;;;;;;26.02;15.80;;;-3.90;99.90;;;;;;5094522;28;20044;-83
2021/12/22 07:58:26;;;;;;;31.42;16.90;;;-3.90;99.90;;;;;;5101617;28;20043;-85
2021/12/22 08:00:53;;;;;;;25.60;17.08;;;-3.90;99.90;;;;;;5103464;28;20044;-81
2021/12/22 08:03:20;;;;;;;26.73;15.65;;;-3.90;99.90;;;;;;5086174;28;20444;-84
2021/12/22 08:05:46;;;;;;;30.00;16.13;;;-4.00;99.90;;;;;;5081724;28;20119;-83
2021/12/22 08:08:11;;;;;;;27.67;16.45;;;-3.90;99.90;;;;;;5083385;28;20089;-83
2021/12/22 08:10:37;;;;;;;29.30;16.50;;;-3.90;99.90;;;;;;5071743;28;20053;-83
2021/12/22 08:13:03;;;;;;;28.90;15.27;;;-3.90;99.90;;;;;;5078296;28;20038;-79
2021/12/22 08:15:29;;;;;;;26.85;15.80;;;-3.80;99.90;;;;;;5074564;28;20132;-78
2021/12/22 08:17:55;;;;;;;34.70;18.38;;;-3.80;99.90;;;;;;5067523;28;20058;-89
2021/12/22 08:20:22;;;;;;;22.67;14.98;;;-3.80;99.90;;;;;;5061817;28;20039;-87
2021/12/22 08:22:48;;;;;;;27.70;16.45;;;-3.80;99.90;;;;;;5064319;28;20048;-87
2021/12/22 08:25:14;;;;;;;26.33;16.02;;;-3.70;99.90;;;;;;5065898;28;20052;-83
2021/12/22 08:27:40;;;;;;;33.53;15.05;;;-3.70;99.90;;;;;;5071712;28;20048;-86
2021/12/22 08:30:07;;;;;;;25.65;15.00;;;-3.60;99.90;;;;;;5058018;28;20399;-83
2021/12/22 08:32:33;;;;;;;28.33;15.13;;;-3.60;99.90;;;;;;5055311;28;20071;-84
2021/12/22 08:35:02;;;;;;;26.33;15.07;;;-3.60;99.90;;;;;;5084907;28;20044;-85
2021/12/22 08:40:14;;;;;;;25.38;14.65;;;-3.50;99.90;;;;;;5079204;28;20041;-84
2021/12/22 08:42:41;;;;;;;27.10;14.63;;;-3.50;99.90;;;;;;5052523;28;20044;-88
2021/12/22 08:45:07;;;;;;;28.25;15.60;;;-3.40;99.90;;;;;;5060168;28;20048;-77
2021/12/22 08:47:33;;;;;;;27.35;17.27;;;-3.50;99.90;;;;;;5070913;28;20455;-81
2021/12/22 08:49:58;;;;;;;29.92;16.70;;;-3.40;99.90;;;;;;5073138;28;20083;-85
2021/12/22 08:52:24;;;;;;;32.60;15.88;;;-3.30;99.90;;;;;;5069572;28;20054;-86
2021/12/22 08:54:50;;;;;;;26.67;16.85;;;-3.30;99.90;;;;;;5078859;28;20040;-85
2021/12/22 08:57:16;;;;;;;29.30;16.08;;;-3.20;99.90;;;;;;5084231;28;20036;-85
2021/12/22 08:59:42;;;;;;;33.10;15.13;;;-3.30;99.90;;;;;;5078283;28;20043;-86
2021/12/22 09:02:08;;;;;;;33.60;16.85;;;-3.30;99.90;;;;;;5079937;28;20040;-86
2021/12/22 09:04:34;;;;;;;29.77;16.98;;;-3.40;99.90;;;;;;5079185;28;20051;-86
2021/12/22 09:06:59;;;;;;;23.52;15.15;;;-3.30;99.90;;;;;;5088010;28;20036;-83
2021/12/22 09:09:25;;;;;;;29.55;17.05;;;-3.30;99.90;;;;;;5084127;28;20044;-86
2021/12/22 09:11:51;;;;;;;28.05;14.93;;;-3.30;99.90;;;;;;5079895;28;20058;-86
2021/12/22 09:14:17;;;;;;;27.67;15.05;;;-3.20;99.90;;;;;;5065841;28;20090;-84
2021/12/22 09:16:43;;;;;;;28.58;15.02;;;-3.10;99.90;;;;;;5061817;28;20067;-82
2021/12/22 09:19:09;;;;;;;24.08;14.57;;;-3.00;99.90;;;;;;5077800;28;20415;-84
2021/12/22 09:21:36;;;;;;;31.23;16.35;;;-3.00;99.90;;;;;;5070840;28;20085;-86
2021/12/22 09:24:03;;;;;;;29.48;15.63;;;-3.00;99.90;;;;;;5067925;28;20044;-75
2021/12/22 09:26:28;;;;;;;28.08;14.38;;;-2.90;99.90;;;;;;5085987;28;20320;-82
2021/12/22 09:28:56;;;;;;;27.10;15.25;;;-2.80;99.90;;;;;;5086245;28;20409;-82
2021/12/22 09:31:22;;;;;;;26.05;15.20;;;-2.80;99.90;;;;;;5039215;28;20131;-84
2021/12/22 09:33:49;;;;;;;34.45;16.65;;;-2.70;99.90;;;;;;5087103;28;20071;-84
2021/12/22 09:36:15;;;;;;;21.83;13.55;;;-2.60;99.90;;;;;;5086568;28;20109;-75
2021/12/22 09:38:42;;;;;;;28.00;15.10;;;-2.80;99.90;;;;;;5089564;28;20048;-82
2021/12/22 09:41:09;;;;;;;26.30;17.10;;;-2.70;99.90;;;;;;5069907;28;20447;-83
2021/12/22 09:43:35;;;;;;;26.80;14.50;;;-2.70;99.90;;;;;;5082652;28;20044;-82
2021/12/22 09:46:06;;;;;;;27.65;13.68;;;-2.60;99.90;;;;;;5069494;28;20105;-83
2021/12/22 09:49:00;;;;;;;29.15;14.90;;;-2.60;99.90;;;;;;5054442;28;20045;-84
2021/12/22 09:53:54;;;;;;;26.00;15.13;;;-2.40;99.90;;;;;;5065105;28;20048;-84
2021/12/22 09:56:27;;;;;;;27.75;16.95;;;-2.30;99.90;;;;;;5051629;28;20402;-83
2021/12/22 09:58:54;;;;;;;29.33;16.63;;;-2.20;99.90;;;;;;5035027;28;20040;-83
2021/12/22 10:01:23;;;;;;;27.85;17.42;;;-2.40;99.90;;;;;;5084478;28;20444;-82
2021/12/22 10:03:53;;;;;;;28.15;16.65;;;-2.20;99.90;;;;;;5052667;28;20040;-84
2021/12/22 10:06:19;;;;;;;28.02;16.08;;;-2.20;99.90;;;;;;5058341;28;20079;-83
2021/12/22 10:09:00;;;;;;;30.33;14.50;;;-2.10;99.90;;;;;;5053976;28;20070;-85
2021/12/22 10:11:29;;;;;;;26.63;15.63;;;-2.00;99.90;;;;;;5067836;28;20082;-84
2021/12/22 10:13:55;;;;;;;39.42;18.02;;;-2.00;99.90;;;;;;5067605;28;20037;-87
2021/12/22 10:16:24;;;;;;;28.45;16.42;;;-2.00;99.90;;;;;;5065918;28;20098;-86
2021/12/22 10:19:06;;;;;;;24.63;14.15;;;-1.90;99.90;;;;;;5069759;28;20063;-78
2021/12/22 10:21:33;;;;;;;25.17;15.18;;;-1.90;99.90;;;;;;5052258;28;20674;-84
2021/12/22 10:24:03;;;;;;;33.97;16.80;;;-1.80;99.90;;;;;;5056336;28;20129;-85
2021/12/22 10:26:28;;;;;;;29.02;15.80;;;-1.80;99.90;;;;;;5070907;28;20044;-89
2021/12/22 10:29:00;;;;;;;26.45;14.98;;;-1.70;99.90;;;;;;5074001;28;20052;-82
2021/12/22 10:31:39;;;;;;;26.95;15.63;;;-1.80;99.90;;;;;;5086218;28;20081;-84
2021/12/22 10:34:10;;;;;;;27.73;15.33;;;-1.70;99.90;;;;;;5059523;28;20510;-83
2021/12/22 10:36:51;;;;;;;29.40;16.27;;;-1.60;99.90;;;;;;5070844;28;20391;-82
2021/12/22 10:39:25;;;;;;;25.58;15.15;;;-1.60;99.90;;;;;;5073176;28;20070;-85
2021/12/22 10:41:52;;;;;;;22.85;15.95;;;-1.60;99.90;;;;;;5086223;28;20040;-84
2021/12/22 10:44:19;;;;;;;24.05;13.70;;;-1.60;99.90;;;;;;5091722;28;20789;-85
2021/12/22 10:46:46;;;;;;;25.77;13.68;;;-1.50;99.90;;;;;;5055516;28;20044;-84
2021/12/22 10:49:21;;;;;;;28.05;16.38;;;-1.50;99.90;;;;;;5060954;28;20044;-76
2021/12/22 10:51:56;;;;;;;24.88;15.18;;;-1.40;99.90;;;;;;5079534;28;20084;-86
2021/12/22 10:54:32;;;;;;;28.92;17.05;;;-1.30;99.90;;;;;;5081718;28;20503;-81
2021/12/22 10:56:58;;;;;;;22.55;15.27;;;-1.20;99.90;;;;;;5072139;28;20052;-86
2021/12/22 10:59:24;;;;;;;30.48;16.17;;;-1.30;99.90;;;;;;5079621;28;20040;-88
2021/12/22 11:01:53;;;;;;;31.38;13.60;;;-1.30;99.90;;;;;;5066097;28;20079;-88
2021/12/22 11:04:25;;;;;;;22.65;14.70;;;-1.20;99.90;;;;;;5090710;28;20040;-86
2021/12/22 11:06:53;;;;;;;27.77;15.00;;;-1.10;99.90;;;;;;5079878;28;20188;-87
2021/12/22 11:09:22;;;;;;;21.30;13.80;;;-1.20;99.90;;;;;;5086997;28;20060;-88
2021/12/22 11:11:58;;;;;;;24.70;13.65;;;-1.10;99.90;;;;;;5050250;28;20426;-87
2021/12/22 11:14:29;;;;;;;24.42;13.70;;;-1.10;99.90;;;;;;5089898;28;20093;-88
2021/12/22 11:17:05;;;;;;;28.95;13.02;;;-1.10;99.90;;;;;;5066492;28;20040;-87
2021/12/22 11:19:33;;;;;;;23.88;14.93;;;-1.10;99.90;;;;;;5074434;28;20055;-89
2021/12/22 11:22:14;;;;;;;26.67;14.93;;;-1.20;99.90;;;;;;5073565;28;20071;-87
2021/12/22 11:24:47;;;;;;;19.73;12.98;;;-1.30;99.90;;;;;;5075121;28;20130;-86
2021/12/22 11:27:25;;;;;;;27.25;15.02;;;-1.30;99.90;;;;;;5098904;28;20115;-75
2021/12/22 11:29:55;;;;;;;20.85;12.93;;;-1.20;99.90;;;;;;5075472;28;20101;-86
2021/12/22 11:32:23;;;;;;;23.80;13.50;;;-1.20;99.90;;;;;;5073113;28;20056;-87
2021/12/22 11:34:52;;;;;;;20.38;13.50;;;-1.20;99.90;;;;;;5054317;28;20048;-89
2021/12/22 11:37:19;;;;;;;19.63;13.90;;;-1.10;99.90;;;;;;5071160;28;20067;-87
2021/12/22 11:39:46;;;;;;;23.75;14.15;;;-1.10;99.90;;;;;;5079457;28;20341;-87
2021/12/22 11:42:13;;;;;;;25.42;13.77;;;-1.00;99.90;;;;;;5071935;28;20044;-86
2021/12/22 11:44:42;;;;;;;19.48;12.63;;;-0.90;99.90;;;;;;5054436;28;20041;-88
2021/12/22 11:47:11;;;;;;;27.52;16.02;;;-0.90;99.90;;;;;;5056758;28;20443;-88
2021/12/22 11:49:49;;;;;;;22.17;14.65;;;-0.80;99.90;;;;;;5055868;28;20056;-88
2021/12/22 11:52:37;;;;;;;21.15;13.30;;;-0.80;99.90;;;;;;5067747;28;20106;-83
2021/12/22 11:55:23;;;;;;;26.92;14.02;;;-0.90;99.90;;;;;;5053226;28;20109;-89
2021/12/22 11:57:52;;;;;;;27.27;14.57;;;-0.80;99.90;;;;;;5061146;28;20043;-87
2021/12/22 12:00:33;;;;;;;26.73;12.80;;;-0.80;99.90;;;;;;5071518;28;20158;-88
2021/12/22 12:03:20;;;;;;;24.27;13.88;;;-0.80;99.90;;;;;;5087733;28;20310;-87
2021/12/22 12:06:06;;;;;;;21.73;13.98;;;-0.70;99.90;;;;;;5073190;28;20058;-75
2021/12/22 12:08:49;;;;;;;24.55;13.57;;;-0.80;99.90;;;;;;5085590;28;20047;-88
2021/12/22 12:11:20;;;;;;;23.23;13.23;;;-0.60;99.90;;;;;;5090634;28;20036;-85
2021/12/22 12:13:56;;;;;;;23.63;13.20;;;-0.60;99.90;;;;;;5079055;28;20139;-88
2021/12/22 12:22:11;;;;;;;23.38;14.20;;;-0.50;99.90;;;;;;5077395;28;20043;-85
2021/12/22 12:24:57;;;;;;;21.05;11.95;;;-0.60;99.90;;;;;;5092531;28;20185;-86
2021/12/22 12:27:51;;;;;;;26.25;14.07;;;-0.70;99.90;;;;;;5092222;28;20414;-85
2021/12/22 12:30:42;;;;;;;25.52;12.93;;;-0.60;99.90;;;;;;5106829;28;20331;-85
2021/12/22 12:33:09;;;;;;;;;;;-0.60;99.90;;;;;;5053406;28;20044;-86
2021/12/22 12:35:38;;;;;;;21.38;11.20;;;-0.40;99.90;;;;;;5069993;28;20412;-85
2021/12/22 12:38:05;;;;;;;22.58;14.93;;;-0.50;99.90;;;;;;5079526;28;20050;-87
2021/12/22 12:40:57;;;;;;;25.38;13.73;;;-0.60;99.90;;;;;;5089191;28;20071;-86
2021/12/22 12:43:52;;;;;;;23.08;14.35;;;-0.60;99.90;;;;;;5078518;28;20075;-84
2021/12/22 12:46:20;;;;;;;21.95;13.88;;;-0.50;99.90;;;;;;5053282;28;20059;-85
2021/12/22 12:48:49;;;;;;;26.40;15.02;;;-0.60;99.90;;;;;;5091026;28;20501;-86
2021/12/22 12:51:16;;;;;;;20.45;13.25;;;-0.70;99.90;;;;;;5038813;28;20062;-77
2021/12/22 12:53:44;;;;;;;22.65;13.13;;;-0.60;99.90;;;;;;5054466;28;20041;-87
2021/12/22 12:56:13;;;;;;;22.88;12.45;;;-0.60;99.90;;;;;;5052568;28;20049;-85
2021/12/22 12:59:03;;;;;;;24.17;14.50;;;-0.50;99.90;;;;;;5056883;28;20502;-87
2021/12/22 13:01:47;;;;;;;20.98;13.65;;;-0.60;99.90;;;;;;5088752;28;20043;-85
2021/12/22 13:04:33;;;;;;;26.45;13.00;;;-0.60;99.90;;;;;;5093527;28;20043;-76
2021/12/22 13:07:17;;;;;;;25.25;14.77;;;-0.60;99.90;;;;;;5093478;28;20623;-85
2021/12/22 13:09:50;;;;;;;19.92;13.45;;;-0.70;99.90;;;;;;5080275;28;20054;-80